Time;durP1;ratioP1;P1;durP2;ratioP2;P2;SDS_P1;SDS_P2;PMS_P1;PMS_P2;Temp;Humidity;BMP_temperature;BMP_pressure;BME280_temperature;BME280_humidity;BME280_pressure;Samples;Min_cycle;Max_cycle;Signal;HPM_P1;HPM_P2
2022/08/07 00:02:15;;;;;;;2.25;1.92;;;16.20;99.90;;;;;;5081948;28;20216;-81
2022/08/07 00:04:44;;;;;;;2.58;2.30;;;16.30;99.90;;;;;;5083486;28;20213;-81
2022/08/07 00:07:11;;;;;;;2.58;1.85;;;16.30;99.90;;;;;;5082951;28;20225;-81
2022/08/07 00:09:39;;;;;;;4.55;2.17;;;16.30;99.90;;;;;;5080994;28;20296;-81
2022/08/07 00:12:07;;;;;;;3.50;2.00;;;16.10;99.90;;;;;;5082972;28;20205;-81
2022/08/07 00:14:35;;;;;;;2.35;2.10;;;16.10;99.90;;;;;;5082348;28;20206;-81
2022/08/07 00:17:02;;;;;;;2.97;2.47;;;16.10;99.90;;;;;;5078605;28;20217;-81
2022/08/07 00:19:31;;;;;;;2.05;1.88;;;16.10;99.90;;;;;;5079591;28;20201;-81
2022/08/07 00:22:00;;;;;;;2.70;1.90;;;16.10;99.90;;;;;;5074205;28;20194;-81
2022/08/07 00:24:27;;;;;;;2.15;1.95;;;16.10;99.90;;;;;;5077759;28;20205;-81
2022/08/07 00:26:55;;;;;;;2.10;1.90;;;16.00;99.90;;;;;;5083133;28;20209;-81
2022/08/07 00:29:24;;;;;;;2.65;2.10;;;16.00;99.90;;;;;;5083487;28;20194;-81
2022/08/07 00:31:53;;;;;;;3.05;2.10;;;16.10;99.90;;;;;;5083463;28;20205;-81
2022/08/07 00:34:23;;;;;;;2.80;2.47;;;16.00;99.90;;;;;;5082286;28;20216;-81
2022/08/07 00:36:51;;;;;;;2.60;2.05;;;15.70;99.90;;;;;;5082778;28;20229;-81
2022/08/07 00:39:20;;;;;;;3.30;2.00;;;15.60;99.90;;;;;;5081246;28;20201;-81
2022/08/07 00:41:53;;;;;;;2.53;2.03;;;15.60;99.90;;;;;;5082880;28;20203;-81
2022/08/07 00:44:21;;;;;;;2.53;2.33;;;15.70;99.90;;;;;;5082179;28;20198;-81
2022/08/07 00:46:49;;;;;;;3.10;2.35;;;15.80;99.90;;;;;;5081428;28;20217;-81
2022/08/07 00:49:18;;;;;;;2.17;1.90;;;15.80;99.90;;;;;;5081467;28;20220;-81
2022/08/07 00:51:46;;;;;;;1.70;1.60;;;15.90;99.90;;;;;;5080777;28;20198;-81
2022/08/07 00:54:14;;;;;;;2.67;2.30;;;15.90;99.90;;;;;;5081437;28;20664;-81
2022/08/07 00:56:43;;;;;;;2.55;2.25;;;15.90;99.90;;;;;;5074836;28;20707;-81
2022/08/07 00:59:11;;;;;;;3.00;2.38;;;15.90;99.90;;;;;;5081260;28;20210;-81
2022/08/07 01:01:39;;;;;;;2.47;2.22;;;15.80;99.90;;;;;;5080837;28;20201;-81
2022/08/07 01:04:07;;;;;;;2.35;2.15;;;15.80;99.90;;;;;;5081799;28;20205;-81
2022/08/07 01:06:35;;;;;;;3.78;2.50;;;15.80;99.90;;;;;;5069236;28;20222;-81
2022/08/07 01:09:03;;;;;;;2.40;2.20;;;15.80;99.90;;;;;;5082351;28;20207;-81
2022/08/07 01:11:32;;;;;;;2.30;2.10;;;15.80;99.90;;;;;;5076031;28;20213;-81
2022/08/07 01:14:02;;;;;;;3.00;2.50;;;15.80;99.90;;;;;;5075988;28;20198;-81
2022/08/07 01:16:29;;;;;;;2.42;2.22;;;15.80;99.90;;;;;;5080531;28;20214;-81
2022/08/07 01:18:58;;;;;;;3.47;2.13;;;15.70;99.90;;;;;;5078387;28;20205;-81
2022/08/07 01:21:27;;;;;;;3.13;2.03;;;15.60;99.90;;;;;;5081071;28;20565;-81
2022/08/07 01:23:58;;;;;;;2.47;2.28;;;15.60;99.90;;;;;;5080319;28;20199;-81
2022/08/07 01:26:27;;;;;;;2.30;2.10;;;15.60;99.90;;;;;;5082866;28;20226;-81
2022/08/07 01:28:55;;;;;;;2.55;2.25;;;15.50;99.90;;;;;;5076947;28;20197;-81
2022/08/07 01:31:30;;;;;;;3.45;2.45;;;15.60;99.90;;;;;;5082680;28;20202;-81
2022/08/07 01:34:04;;;;;;;3.25;2.20;;;15.60;99.90;;;;;;5070610;28;20190;-81
2022/08/07 01:36:37;;;;;;;2.50;2.30;;;15.50;99.90;;;;;;5083101;28;20220;-81
2022/08/07 01:39:11;;;;;;;2.75;2.55;;;15.60;99.90;;;;;;5074848;28;20200;-81
2022/08/07 01:41:43;;;;;;;3.47;2.42;;;15.50;99.90;;;;;;5084597;28;20208;-81
2022/08/07 01:44:12;;;;;;;2.95;2.63;;;15.50;99.90;;;;;;5082822;28;20196;-81
2022/08/07 01:46:40;;;;;;;2.80;2.20;;;15.40;99.90;;;;;;5071875;28;20222;-82
2022/08/07 01:49:11;;;;;;;2.75;2.55;;;15.40;99.90;;;;;;5077820;28;20563;-81
2022/08/07 01:51:43;;;;;;;3.30;3.05;;;15.40;99.90;;;;;;5073894;28;20204;-81
2022/08/07 01:54:13;;;;;;;2.88;2.67;;;15.10;99.90;;;;;;5079532;28;20198;-81
2022/08/07 01:56:51;;;;;;;3.28;2.88;;;15.10;99.90;;;;;;5079282;28;20221;-81
2022/08/07 01:59:25;;;;;;;3.58;2.85;;;15.30;99.90;;;;;;5070207;28;20196;-81
2022/08/07 02:01:58;;;;;;;3.20;2.90;;;15.30;99.90;;;;;;5077608;28;20204;-81
2022/08/07 02:04:29;;;;;;;3.50;2.65;;;15.30;99.90;;;;;;5073954;28;20229;-81
2022/08/07 02:07:03;;;;;;;3.40;3.05;;;15.20;99.90;;;;;;5080296;28;20217;-81
2022/08/07 02:09:32;;;;;;;3.15;2.72;;;15.20;99.90;;;;;;5077696;28;20255;-81
2022/08/07 02:12:15;;;;;;;3.35;2.60;;;15.10;99.90;;;;;;5083084;28;20225;-81
2022/08/07 02:14:48;;;;;;;3.22;2.92;;;15.20;99.90;;;;;;5079733;28;20193;-81
2022/08/07 02:17:22;;;;;;;2.78;2.33;;;15.30;99.90;;;;;;5079871;28;20220;-81
2022/08/07 02:19:53;;;;;;;2.63;2.42;;;15.20;99.90;;;;;;5080693;28;20667;-81
2022/08/07 02:22:23;;;;;;;2.70;2.50;;;15.10;99.90;;;;;;5082668;28;20566;-81
2022/08/07 02:24:54;;;;;;;2.60;2.40;;;15.00;99.90;;;;;;5072075;28;20186;-81
2022/08/07 02:27:23;;;;;;;2.80;2.60;;;15.00;99.90;;;;;;5079051;28;20221;-81
2022/08/07 02:29:52;;;;;;;3.90;2.70;;;15.00;99.90;;;;;;5082500;28;20208;-81
2022/08/07 02:32:21;;;;;;;3.00;2.17;;;15.00;99.90;;;;;;5077353;28;20202;-81
2022/08/07 02:34:49;;;;;;;2.95;2.50;;;15.00;99.90;;;;;;5080864;28;20201;-81
2022/08/07 02:37:19;;;;;;;3.10;2.80;;;15.00;99.90;;;;;;5079967;28;20216;-81
2022/08/07 02:39:50;;;;;;;2.60;2.40;;;15.00;99.90;;;;;;5076727;28;20201;-81
2022/08/07 02:42:21;;;;;;;2.60;2.38;;;15.00;99.90;;;;;;5076570;28;20193;-81
2022/08/07 02:44:53;;;;;;;4.03;2.70;;;14.90;99.90;;;;;;5079824;28;20204;-81
2022/08/07 02:47:23;;;;;;;2.88;2.22;;;15.00;99.90;;;;;;5071273;28;20237;-81
2022/08/07 02:49:53;;;;;;;2.45;2.22;;;15.00;99.90;;;;;;5079029;28;20244;-81
2022/08/07 02:52:32;;;;;;;3.22;2.33;;;14.90;99.90;;;;;;5081891;28;20201;-81
2022/08/07 02:55:07;;;;;;;2.85;2.42;;;15.00;99.90;;;;;;5089296;28;20201;-81
2022/08/07 02:57:37;;;;;;;3.03;2.60;;;15.10;99.90;;;;;;5076971;28;20216;-81
2022/08/07 03:00:06;;;;;;;3.83;2.40;;;15.40;99.90;;;;;;5076962;28;20216;-81
2022/08/07 03:02:36;;;;;;;3.70;2.55;;;15.70;99.90;;;;;;5098204;28;20200;-81
2022/08/07 03:05:07;;;;;;;2.60;2.40;;;15.90;99.90;;;;;;5079659;28;20212;-81
2022/08/07 03:07:37;;;;;;;3.30;2.72;;;15.90;99.90;;;;;;5079328;28;20691;-81
2022/08/07 03:10:10;;;;;;;2.85;2.65;;;15.90;99.90;;;;;;5075722;28;20208;-81
2022/08/07 03:12:39;;;;;;;2.80;2.58;;;15.80;99.90;;;;;;5079079;28;20193;-81
2022/08/07 03:15:12;;;;;;;3.90;2.90;;;15.40;99.90;;;;;;5081237;28;20201;-81
2022/08/07 03:21:32;;;;;;;3.75;2.80;;;14.90;99.90;;;;;;5083493;28;20188;-81
2022/08/07 03:24:01;;;;;;;3.40;2.58;;;14.90;99.90;;;;;;5077338;28;20196;-81
2022/08/07 03:26:33;;;;;;;2.53;2.30;;;14.90;99.90;;;;;;5084968;28;20217;-81
2022/08/07 03:29:07;;;;;;;3.05;2.17;;;14.80;99.90;;;;;;5092021;28;20200;-82
2022/08/07 03:31:37;;;;;;;3.83;2.20;;;14.70;99.90;;;;;;5085456;28;20201;-81
2022/08/07 03:34:07;;;;;;;2.55;2.35;;;14.70;99.90;;;;;;5083907;28;20205;-81
2022/08/07 03:36:37;;;;;;;4.35;2.40;;;14.50;99.90;;;;;;5083987;28;20213;-81
2022/08/07 03:39:08;;;;;;;2.80;2.55;;;14.50;99.90;;;;;;5086964;28;20212;-81
2022/08/07 03:41:39;;;;;;;3.78;3.05;;;14.40;99.90;;;;;;5080358;28;20664;-81
2022/08/07 03:44:07;;;;;;;2.90;2.70;;;14.30;99.90;;;;;;5085045;28;20194;-80
2022/08/07 03:46:36;;;;;;;3.33;3.03;;;14.30;99.90;;;;;;5080629;28;20226;-81
2022/08/07 03:49:04;;;;;;;3.15;2.63;;;14.20;99.90;;;;;;5082215;28;20678;-81
2022/08/07 03:51:40;;;;;;;3.28;3.00;;;14.10;99.90;;;;;;5080713;28;20201;-81
2022/08/07 03:54:08;;;;;;;4.38;3.10;;;14.10;99.90;;;;;;5083451;28;20209;-81
2022/08/07 03:56:41;;;;;;;2.78;2.58;;;14.20;99.90;;;;;;5086034;28;20214;-81
2022/08/07 03:59:12;;;;;;;3.75;3.28;;;14.10;99.90;;;;;;5080728;28;20190;-81
2022/08/07 04:01:42;;;;;;;3.97;3.10;;;14.20;99.90;;;;;;5080706;28;20202;-83
2022/08/07 04:04:11;;;;;;;3.60;3.20;;;14.20;99.90;;;;;;5081706;28;20205;-83
2022/08/07 04:06:40;;;;;;;4.40;3.22;;;14.30;99.90;;;;;;5079589;28;20234;-84
2022/08/07 04:09:17;;;;;;;3.22;2.92;;;14.40;99.90;;;;;;5081395;28;20206;-83
2022/08/07 04:11:49;;;;;;;3.22;2.75;;;14.50;99.90;;;;;;5082664;28;20208;-83
2022/08/07 04:14:17;;;;;;;4.05;3.53;;;14.80;99.90;;;;;;5080918;28;20189;-83
2022/08/07 04:16:45;;;;;;;3.95;3.50;;;14.80;99.90;;;;;;5080583;28;20225;-83
2022/08/07 04:19:16;;;;;;;3.47;3.17;;;14.80;99.90;;;;;;5084951;28;20193;-83
2022/08/07 04:21:50;;;;;;;5.20;3.60;;;15.10;99.90;;;;;;5081725;28;20189;-83
2022/08/07 04:24:18;;;;;;;4.03;3.58;;;15.10;99.90;;;;;;5081716;28;20208;-83
2022/08/07 04:26:48;;;;;;;3.83;3.30;;;15.10;99.90;;;;;;5083390;28;20230;-83
2022/08/07 04:29:15;;;;;;;3.97;3.55;;;15.20;99.90;;;;;;5084693;28;20201;-83
2022/08/07 04:31:43;;;;;;;3.85;3.22;;;15.20;99.90;;;;;;5082941;28;20202;-83
2022/08/07 04:34:12;;;;;;;4.25;3.58;;;14.80;99.90;;;;;;5080895;28;20198;-83
2022/08/07 04:36:41;;;;;;;3.92;3.45;;;14.50;99.90;;;;;;5084558;28;20218;-83
2022/08/07 04:39:09;;;;;;;4.32;3.72;;;14.50;99.90;;;;;;5083850;28;20194;-83
2022/08/07 04:41:37;;;;;;;3.80;3.40;;;14.70;99.90;;;;;;5084516;28;20202;-83
2022/08/07 04:44:07;;;;;;;4.45;3.90;;;14.80;99.90;;;;;;5083943;28;20204;-83
2022/08/07 04:46:45;;;;;;;3.97;3.58;;;14.70;99.90;;;;;;5077494;28;20225;-83
2022/08/07 04:49:21;;;;;;;3.72;3.42;;;14.70;99.90;;;;;;5084439;28;20194;-83
2022/08/07 04:51:59;;;;;;;5.07;3.80;;;14.80;99.90;;;;;;5084033;28;20193;-83
2022/08/07 04:54:33;;;;;;;3.92;3.55;;;14.80;99.90;;;;;;5084028;28;20201;-83
2022/08/07 04:57:11;;;;;;;3.72;3.42;;;15.00;99.90;;;;;;5087093;28;20563;-83
2022/08/07 04:59:47;;;;;;;4.55;4.05;;;15.10;99.90;;;;;;5082141;28;20193;-83
2022/08/07 05:02:20;;;;;;;4.57;3.78;;;15.00;99.90;;;;;;5081867;28;20209;-83
2022/08/07 05:04:56;;;;;;;3.75;3.45;;;15.10;99.90;;;;;;5086007;28;20193;-83
2022/08/07 05:07:26;;;;;;;4.55;4.10;;;15.00;99.90;;;;;;5080925;28;20228;-83
2022/08/07 05:10:00;;;;;;;4.18;3.78;;;15.00;99.90;;;;;;5079675;28;20204;-83
2022/08/07 05:12:41;;;;;;;4.20;3.25;;;14.90;99.90;;;;;;5083689;28;20201;-83
2022/08/07 05:15:16;;;;;;;4.47;3.58;;;15.20;99.90;;;;;;5079453;28;20189;-83
2022/08/07 05:17:47;;;;;;;3.78;3.30;;;15.40;99.90;;;;;;5084727;28;20209;-83
2022/08/07 05:20:23;;;;;;;3.92;3.30;;;15.30;99.90;;;;;;5083349;28;20206;-83
2022/08/07 05:22:54;;;;;;;4.70;4.05;;;15.40;99.90;;;;;;5083510;28;20197;-83
2022/08/07 05:25:24;;;;;;;3.65;3.35;;;15.40;99.90;;;;;;5077610;28;20193;-83
2022/08/07 05:27:53;;;;;;;4.70;4.30;;;15.40;99.90;;;;;;5075831;28;20217;-83
2022/08/07 05:30:24;;;;;;;3.97;3.63;;;15.40;99.90;;;;;;5078647;28;20201;-83
2022/08/07 05:32:52;;;;;;;4.40;3.72;;;15.50;99.90;;;;;;5079693;28;21178;-83
2022/08/07 05:35:22;;;;;;;6.70;3.70;;;15.50;99.90;;;;;;5078539;28;20208;-83
2022/08/07 05:37:51;;;;;;;4.97;4.13;;;15.40;99.90;;;;;;5085836;28;20201;-83
2022/08/07 05:40:19;;;;;;;5.50;4.13;;;15.40;99.90;;;;;;5083215;28;20578;-83
2022/08/07 05:42:48;;;;;;;4.22;3.70;;;15.60;99.90;;;;;;5081787;28;20203;-83
2022/08/07 05:45:16;;;;;;;5.00;3.95;;;15.80;99.90;;;;;;5085616;28;20555;-83
2022/08/07 05:47:45;;;;;;;5.00;3.75;;;15.80;99.90;;;;;;5094707;28;20221;-83
2022/08/07 05:50:14;;;;;;;4.28;3.90;;;15.80;99.90;;;;;;5076647;28;20194;-83
2022/08/07 05:52:42;;;;;;;4.45;4.05;;;15.90;99.90;;;;;;5081213;28;20198;-83
2022/08/07 05:55:10;;;;;;;4.13;3.83;;;15.90;99.90;;;;;;5080681;28;20202;-83
2022/08/07 05:57:39;;;;;;;5.90;3.80;;;16.10;99.90;;;;;;5081176;28;20228;-83
2022/08/07 06:00:08;;;;;;;5.00;3.70;;;16.30;99.90;;;;;;5078099;28;20202;-83
2022/08/07 06:02:50;;;;;;;4.03;3.67;;;16.40;99.90;;;;;;5075742;28;20205;-83
2022/08/07 06:05:25;;;;;;;5.68;4.65;;;16.50;99.90;;;;;;5082008;28;20185;-83
2022/08/07 06:07:53;;;;;;;4.97;4.38;;;16.60;99.90;;;;;;5077729;28;20228;-83
2022/08/07 06:10:21;;;;;;;3.60;3.30;;;16.70;99.90;;;;;;5076637;28;20213;-83
2022/08/07 06:12:49;;;;;;;4.38;3.45;;;16.80;99.90;;;;;;5072183;28;20214;-83
2022/08/07 06:15:18;;;;;;;2.92;2.47;;;16.70;99.90;;;;;;5075832;28;20198;-79
2022/08/07 06:17:48;;;;;;;3.92;2.55;;;17.10;99.90;;;;;;5073550;28;20220;-79
2022/08/07 06:20:16;;;;;;;3.17;2.65;;;17.60;99.90;;;;;;5077877;28;20204;-80
2022/08/07 06:22:46;;;;;;;3.70;3.00;;;18.10;99.90;;;;;;5064051;28;20587;-80
2022/08/07 06:25:25;;;;;;;5.47;2.60;;;18.50;99.90;;;;;;5066532;28;20210;-79
2022/08/07 06:28:05;;;;;;;3.63;3.33;;;18.60;99.90;;;;;;5072907;28;20214;-79
2022/08/07 06:30:34;;;;;;;3.00;2.60;;;18.40;99.90;;;;;;5065176;28;20723;-80
2022/08/07 06:33:04;;;;;;;3.15;2.83;;;18.20;99.90;;;;;;5074737;28;20194;-80
2022/08/07 06:35:32;;;;;;;4.85;2.90;;;18.70;99.90;;;;;;5070189;28;20202;-80
2022/08/07 06:37:59;;;;;;;3.22;2.90;;;18.70;99.90;;;;;;5075027;28;20189;-80
2022/08/07 06:40:29;;;;;;;3.70;3.05;;;19.00;99.90;;;;;;5073571;28;20576;-80
2022/08/07 06:43:02;;;;;;;3.85;2.80;;;19.20;99.90;;;;;;5080224;28;20193;-80
2022/08/07 06:45:54;;;;;;;3.67;2.92;;;19.40;99.90;;;;;;5077196;28;20237;-80
2022/08/07 06:48:25;;;;;;;2.35;2.15;;;19.50;99.40;;;;;;5079421;28;20564;-80
2022/08/07 06:51:07;;;;;;;3.33;2.60;;;19.50;99.00;;;;;;5070149;28;20209;-78
2022/08/07 06:53:36;;;;;;;2.50;2.30;;;19.60;98.60;;;;;;5067875;28;20220;-78
2022/08/07 06:56:08;;;;;;;3.70;2.67;;;19.60;98.90;;;;;;5061737;28;20218;-80
2022/08/07 06:58:40;;;;;;;2.85;2.28;;;19.60;98.80;;;;;;5068431;28;20660;-78
2022/08/07 07:01:36;;;;;;;2.70;2.40;;;19.70;98.60;;;;;;5066694;28;20267;-78
2022/08/07 07:04:06;;;;;;;4.28;2.25;;;19.60;99.00;;;;;;5070919;28;20205;-79
2022/08/07 07:06:34;;;;;;;3.47;2.58;;;19.80;98.40;;;;;;5073603;28;20577;-79
2022/08/07 07:09:21;;;;;;;3.72;2.55;;;19.90;98.00;;;;;;5077153;28;20218;-80
2022/08/07 07:12:03;;;;;;;26.25;18.83;;;20.10;97.40;;;;;;5077063;28;20575;-80
2022/08/07 07:14:37;;;;;;;40.55;22.10;;;20.20;99.90;;;;;;5074695;28;20185;-79
2022/08/07 07:17:13;;;;;;;10.27;7.20;;;20.30;99.90;;;;;;5074360;28;20217;-80
2022/08/07 07:19:47;;;;;;;40.40;26.55;;;20.00;99.90;;;;;;5074504;28;20223;-81
2022/08/07 07:22:16;;;;;;;39.70;29.88;;;20.20;99.90;;;;;;5071146;28;20200;-80
2022/08/07 07:24:44;;;;;;;6.95;4.90;;;20.50;99.90;;;;;;5067125;28;20205;-78
2022/08/07 07:27:14;;;;;;;15.10;10.63;;;20.40;98.10;;;;;;5062611;28;20225;-78
2022/08/07 07:29:47;;;;;;;21.70;13.85;;;20.40;99.20;;;;;;5064414;28;20221;-78
2022/08/07 07:32:17;;;;;;;5.20;3.85;;;20.60;99.70;;;;;;5068342;28;20193;-79
2022/08/07 07:34:51;;;;;;;5.15;3.80;;;20.60;96.50;;;;;;5075458;28;20205;-81
2022/08/07 07:37:20;;;;;;;3.95;2.97;;;20.70;96.00;;;;;;5072603;28;20217;-80
2022/08/07 07:39:49;;;;;;;3.95;2.40;;;20.70;95.50;;;;;;5088151;28;20198;-81
2022/08/07 07:42:19;;;;;;;4.47;2.03;;;20.80;94.70;;;;;;5074492;28;20655;-80
2022/08/07 07:44:47;;;;;;;4.13;1.98;;;20.80;94.30;;;;;;5072334;28;20674;-80
2022/08/07 07:47:16;;;;;;;1.83;1.73;;;20.60;94.50;;;;;;5071734;28;20210;-82
2022/08/07 07:49:45;;;;;;;3.03;2.00;;;20.80;94.60;;;;;;5076904;28;20272;-82
2022/08/07 07:52:15;;;;;;;1.90;1.70;;;20.80;94.10;;;;;;5075086;28;20198;-82
2022/08/07 07:54:45;;;;;;;2.63;1.98;;;20.80;94.00;;;;;;5079280;28;20198;-82
2022/08/07 07:57:15;;;;;;;4.05;2.00;;;20.80;93.50;;;;;;5068039;28;20225;-83
2022/08/07 07:59:43;;;;;;;3.05;1.88;;;20.90;93.60;;;;;;5077897;28;20210;-82
2022/08/07 08:02:16;;;;;;;2.03;1.85;;;21.00;93.40;;;;;;5071329;28;20206;-82
2022/08/07 08:04:44;;;;;;;3.47;1.85;;;20.90;92.90;;;;;;5076134;28;20199;-83
2022/08/07 08:07:13;;;;;;;3.33;1.70;;;21.00;93.00;;;;;;5073505;28;20222;-84
2022/08/07 08:09:42;;;;;;;4.32;1.85;;;20.90;92.90;;;;;;5076551;28;20222;-84
2022/08/07 08:12:11;;;;;;;13.70;5.40;;;21.00;92.80;;;;;;5082631;28;20202;-83
2022/08/07 08:14:40;;;;;;;5.78;2.67;;;21.20;91.90;;;;;;5080615;28;20189;-82
2022/08/07 08:17:12;;;;;;;3.92;2.17;;;21.20;90.90;;;;;;5073786;28;20232;-82
2022/08/07 08:19:44;;;;;;;6.97;2.88;;;21.10;90.70;;;;;;5080972;28;20198;-84
2022/08/07 08:27:53;;;;;;;2.22;1.42;;;21.60;88.40;;;;;;5076352;28;20205;-83
2022/08/07 08:30:22;;;;;;;2.63;1.40;;;21.40;87.30;;;;;;5075118;28;20209;-82
2022/08/07 08:32:53;;;;;;;4.18;1.40;;;21.50;86.60;;;;;;5080443;28;20202;-82
2022/08/07 08:35:25;;;;;;;2.20;1.38;;;21.60;85.00;;;;;;5079501;28;20213;-82
2022/08/07 08:37:58;;;;;;;1.60;0.90;;;21.70;82.80;;;;;;5072532;28;20206;-81
2022/08/07 08:40:32;;;;;;;2.88;1.00;;;21.30;83.60;;;;;;5076077;28;20194;-84
2022/08/07 08:43:06;;;;;;;1.33;1.10;;;21.20;82.80;;;;;;5079387;28;20197;-82
2022/08/07 08:45:41;;;;;;;2.60;1.10;;;21.40;83.30;;;;;;5073746;28;20197;-82
2022/08/07 08:48:24;;;;;;;2.88;1.20;;;21.50;81.30;;;;;;5078531;28;20189;-82
2022/08/07 08:50:56;;;;;;;1.55;1.10;;;21.50;82.60;;;;;;5074634;28;20225;-82
2022/08/07 08:53:32;;;;;;;0.65;0.65;;;21.60;81.10;;;;;;5076464;28;20224;-84
2022/08/07 08:56:06;;;;;;;0.82;0.80;;;21.60;75.50;;;;;;5070648;28;20228;-83
2022/08/07 08:58:47;;;;;;;1.35;0.82;;;21.60;75.80;;;;;;5075762;28;20202;-83
2022/08/07 09:01:20;;;;;;;3.58;0.80;;;21.70;77.00;;;;;;5072495;28;20194;-83
2022/08/07 09:03:58;;;;;;;0.80;0.75;;;21.60;73.00;;;;;;5080270;28;20201;-83
2022/08/07 09:06:44;;;;;;;1.27;0.60;;;21.70;74.20;;;;;;5079972;28;20213;-84
2022/08/07 09:09:25;;;;;;;1.33;0.70;;;21.80;69.70;;;;;;5078805;28;20226;-83
2022/08/07 09:12:04;;;;;;;0.63;0.50;;;22.00;68.30;;;;;;5080531;28;20189;-83
2022/08/07 09:14:37;;;;;;;0.75;0.50;;;21.80;63.50;;;;;;5081466;28;20201;-83
2022/08/07 09:17:16;;;;;;;2.05;1.67;;;21.80;61.30;;;;;;5073513;28;20217;-84
2022/08/07 09:19:56;;;;;;;0.73;0.60;;;22.00;65.00;;;;;;5079300;28;20200;-83
2022/08/07 09:22:47;;;;;;;0.90;0.50;;;22.00;62.90;;;;;;5078421;28;20205;-83
2022/08/07 09:25:21;;;;;;;0.60;0.43;;;22.00;61.50;;;;;;5082787;28;20660;-83
2022/08/07 09:28:00;;;;;;;1.10;0.70;;;22.10;61.60;;;;;;5074660;28;20213;-84
2022/08/07 09:30:36;;;;;;;0.60;0.50;;;22.10;59.30;;;;;;5076161;28;20214;-84
2022/08/07 09:33:18;;;;;;;2.63;0.90;;;22.10;60.70;;;;;;5075546;28;20194;-84
2022/08/07 09:35:50;;;;;;;3.30;0.98;;;22.10;59.80;;;;;;5076444;28;20233;-84
2022/08/07 09:38:25;;;;;;;0.82;0.80;;;22.10;59.60;;;;;;5071978;28;20197;-81
2022/08/07 09:41:07;;;;;;;1.23;0.63;;;22.10;58.60;;;;;;5069077;28;20197;-81
2022/08/07 09:44:01;;;;;;;1.33;1.02;;;22.10;58.70;;;;;;5064311;28;20614;-81
2022/08/07 09:46:43;;;;;;;1.67;0.55;;;22.10;58.40;;;;;;5060529;28;20240;-81
2022/08/07 09:49:25;;;;;;;1.10;0.73;;;22.00;58.00;;;;;;5069425;28;20209;-80
2022/08/07 09:52:04;;;;;;;0.98;0.50;;;22.10;56.40;;;;;;5061471;28;20562;-81
2022/08/07 09:54:39;;;;;;;0.50;0.50;;;22.00;55.00;;;;;;5060606;28;20683;-81
2022/08/07 09:57:40;;;;;;;1.13;0.70;;;22.10;56.30;;;;;;5073513;28;20216;-81
2022/08/07 10:00:11;;;;;;;1.23;0.45;;;22.20;57.10;;;;;;5075243;28;20197;-82
2022/08/07 10:03:10;;;;;;;0.70;0.52;;;22.10;56.10;;;;;;5077241;28;20202;-81
2022/08/07 10:06:05;;;;;;;0.73;0.50;;;22.20;57.00;;;;;;5076601;28;20201;-81
2022/08/07 10:09:00;;;;;;;2.22;0.75;;;22.00;55.40;;;;;;5077775;28;20217;-81
2022/08/07 10:11:44;;;;;;;0.60;0.50;;;22.10;55.70;;;;;;5047568;28;20225;-81
2022/08/07 10:14:21;;;;;;;1.52;0.40;;;22.10;55.70;;;;;;5080368;28;20201;-82
2022/08/07 10:17:09;;;;;;;0.90;0.50;;;22.20;56.30;;;;;;5077121;28;20229;-82
2022/08/07 10:19:46;;;;;;;0.85;0.52;;;22.30;54.10;;;;;;5075620;28;20200;-82
2022/08/07 10:22:42;;;;;;;0.93;0.35;;;22.30;53.80;;;;;;5082118;28;20189;-81
2022/08/07 10:25:20;;;;;;;1.98;1.30;;;22.20;54.40;;;;;;5036700;28;20190;-82
2022/08/07 10:28:08;;;;;;;2.97;0.80;;;22.40;55.50;;;;;;5085041;28;20220;-82
2022/08/07 10:30:50;;;;;;;1.13;0.52;;;22.50;55.00;;;;;;5077169;28;20216;-82
2022/08/07 10:33:37;;;;;;;1.65;0.63;;;22.60;54.60;;;;;;5074347;28;20194;-82
2022/08/07 10:36:17;;;;;;;0.50;0.30;;;22.80;53.60;;;;;;5087294;28;20221;-81
2022/08/07 10:38:52;;;;;;;1.48;0.40;;;22.70;52.10;;;;;;5082859;28;20202;-82
2022/08/07 10:41:28;;;;;;;1.40;1.10;;;22.80;53.40;;;;;;5082271;28;20192;-81
2022/08/07 10:44:02;;;;;;;0.88;0.60;;;22.80;52.40;;;;;;5072667;28;20208;-82
2022/08/07 10:46:39;;;;;;;1.67;0.50;;;22.90;51.10;;;;;;5080110;28;20225;-83
2022/08/07 10:49:14;;;;;;;0.55;0.40;;;23.00;51.60;;;;;;5076386;28;20548;-83
2022/08/07 10:51:54;;;;;;;0.68;0.50;;;23.00;52.00;;;;;;5080457;28;20222;-81
2022/08/07 10:54:33;;;;;;;1.35;0.70;;;23.00;52.30;;;;;;5082881;28;20206;-81
2022/08/07 10:57:10;;;;;;;1.90;0.55;;;23.20;52.80;;;;;;5080712;28;20226;-81
2022/08/07 11:00:03;;;;;;;1.05;0.57;;;23.10;50.60;;;;;;5081029;28;20201;-81
2022/08/07 11:02:37;;;;;;;1.30;0.60;;;23.20;51.20;;;;;;5081050;28;20682;-82
2022/08/07 11:05:32;;;;;;;1.23;0.63;;;23.30;51.30;;;;;;5082925;28;20190;-83
2022/08/07 11:08:13;;;;;;;0.77;0.60;;;23.30;50.90;;;;;;5079186;28;20193;-83
2022/08/07 11:10:47;;;;;;;0.95;0.45;;;23.30;48.60;;;;;;5080443;28;20213;-81
2022/08/07 11:13:23;;;;;;;0.73;0.40;;;23.20;49.90;;;;;;5084617;28;20197;-83
2022/08/07 11:15:54;;;;;;;1.50;0.70;;;23.50;49.30;;;;;;5077460;28;20580;-81
2022/08/07 11:18:29;;;;;;;1.42;0.60;;;23.60;48.90;;;;;;5078819;28;20201;-81
2022/08/07 11:21:06;;;;;;;0.57;0.57;;;23.60;47.60;;;;;;5079902;28;20201;-81
2022/08/07 11:23:46;;;;;;;1.42;0.70;;;23.60;46.60;;;;;;5077174;28;20208;-81
2022/08/07 11:26:20;;;;;;;1.50;0.68;;;23.80;47.40;;;;;;5077382;28;20221;-82
2022/08/07 11:28:52;;;;;;;1.10;0.50;;;24.00;46.60;;;;;;5082539;28;20194;-81
2022/08/07 11:31:29;;;;;;;1.15;0.52;;;24.10;46.30;;;;;;5080234;28;20225;-81
2022/08/07 11:34:05;;;;;;;1.33;0.50;;;24.10;47.50;;;;;;5077713;28;20194;-80
2022/08/07 11:36:49;;;;;;;0.52;0.47;;;24.20;46.90;;;;;;5075701;28;20236;-83
2022/08/07 11:39:29;;;;;;;1.02;0.50;;;24.30;46.90;;;;;;5072808;28;20199;-82
2022/08/07 11:42:09;;;;;;;0.63;0.30;;;24.40;46.70;;;;;;5067454;28;20189;-83
2022/08/07 11:44:49;;;;;;;1.10;0.38;;;24.50;46.00;;;;;;5089540;28;20224;-83
2022/08/07 11:47:29;;;;;;;1.83;0.60;;;24.50;46.50;;;;;;5069874;28;20222;-83
2022/08/07 11:50:11;;;;;;;1.33;0.35;;;24.40;44.80;;;;;;5091417;28;20197;-83
2022/08/07 11:53:03;;;;;;;0.73;0.60;;;24.30;44.90;;;;;;5077833;28;20667;-83
2022/08/07 11:56:06;;;;;;;0.73;0.47;;;24.50;45.90;;;;;;5076679;28;20212;-84
2022/08/07 11:58:48;;;;;;;1.60;1.00;;;24.50;45.40;;;;;;5079781;28;20206;-83
2022/08/07 12:01:34;;;;;;;1.20;0.57;;;24.70;45.40;;;;;;5081139;28;20193;-83
2022/08/07 12:04:29;;;;;;;1.85;0.82;;;24.80;44.50;;;;;;5077752;28;20198;-83
2022/08/07 12:07:02;;;;;;;1.48;0.65;;;25.00;44.50;;;;;;5083748;28;20727;-83
2022/08/07 12:09:36;;;;;;;1.77;0.68;;;25.10;44.00;;;;;;5081936;28;20210;-83
2022/08/07 12:12:08;;;;;;;0.40;0.40;;;25.30;43.70;;;;;;5080103;28;20216;-84
2022/08/07 12:14:44;;;;;;;0.50;0.50;;;25.30;43.70;;;;;;5081940;28;20193;-84
2022/08/07 12:17:12;;;;;;;0.60;0.50;;;25.40;43.50;;;;;;5082434;28;20225;-83
2022/08/07 12:19:49;;;;;;;0.88;0.60;;;25.50;42.30;;;;;;5075217;28;20213;-83
2022/08/07 12:22:23;;;;;;;1.00;0.50;;;25.70;42.30;;;;;;5075510;28;20189;-84
2022/08/07 12:27:50;;;;;;;3.08;0.77;;;26.10;40.50;;;;;;5081420;28;20229;-84
2022/08/07 12:30:19;;;;;;;0.90;0.60;;;26.20;40.30;;;;;;5082592;28;20205;-83
2022/08/07 12:32:56;;;;;;;1.35;0.80;;;26.30;39.80;;;;;;5079637;28;20554;-83
2022/08/07 12:35:25;;;;;;;0.38;0.38;;;26.20;38.40;;;;;;5069625;28;20193;-83
2022/08/07 12:37:54;;;;;;;1.42;0.60;;;26.10;38.90;;;;;;5080167;28;20683;-84
2022/08/07 12:40:26;;;;;;;1.10;0.40;;;26.30;39.30;;;;;;5074492;28;20210;-83
2022/08/07 12:43:01;;;;;;;1.15;0.50;;;26.70;38.30;;;;;;5080600;28;20209;-84
2022/08/07 12:45:35;;;;;;;1.20;0.70;;;26.60;38.10;;;;;;5082719;28;20212;-84
2022/08/07 12:48:13;;;;;;;1.67;0.45;;;26.70;37.90;;;;;;5078810;28;20201;-83
2022/08/07 12:50:48;;;;;;;1.35;0.57;;;26.80;38.10;;;;;;5079077;28;20205;-83
2022/08/07 12:53:26;;;;;;;2.20;0.55;;;26.90;38.60;;;;;;5082864;28;20564;-84
2022/08/07 12:56:03;;;;;;;0.60;0.60;;;26.60;39.20;;;;;;5082900;28;20217;-82
2022/08/07 12:58:37;;;;;;;1.35;0.88;;;26.60;39.60;;;;;;5085374;28;20200;-84
2022/08/07 13:01:16;;;;;;;2.05;0.50;;;26.40;40.00;;;;;;5072777;28;20212;-83
2022/08/07 13:04:04;;;;;;;0.82;0.63;;;26.60;39.50;;;;;;5084076;28;20204;-84
2022/08/07 13:07:15;;;;;;;2.13;0.63;;;27.00;38.90;;;;;;5080445;28;20225;-84
2022/08/07 13:10:10;;;;;;;1.75;0.60;;;27.30;38.10;;;;;;5087698;28;20205;-84
2022/08/07 13:12:56;;;;;;;1.45;0.77;;;27.00;38.10;;;;;;5085689;28;21467;-84
2022/08/07 13:15:37;;;;;;;0.57;0.55;;;27.10;38.10;;;;;;5080270;28;20809;-83
2022/08/07 13:18:18;;;;;;;1.85;1.08;;;27.50;37.00;;;;;;5079280;28;20197;-83
2022/08/07 13:20:51;;;;;;;1.48;0.80;;;27.40;36.40;;;;;;5072064;28;20204;-84
2022/08/07 13:23:25;;;;;;;0.70;0.65;;;27.60;36.50;;;;;;5086548;28;20204;-84
2022/08/07 13:25:59;;;;;;;1.02;0.68;;;27.60;36.60;;;;;;5087267;28;20217;-83
2022/08/07 13:28:33;;;;;;;0.55;0.55;;;27.00;36.60;;;;;;5083238;28;20204;-84
2022/08/07 13:31:05;;;;;;;0.90;0.50;;;27.60;36.70;;;;;;5083357;28;20205;-83
2022/08/07 13:33:43;;;;;;;1.55;0.65;;;27.80;35.10;;;;;;5081639;28;20187;-84